Time;durP1;ratioP1;P1;durP2;ratioP2;P2;SDS_P1;SDS_P2;PMS_P1;PMS_P2;Temp;Humidity;BMP_temperature;BMP_pressure;BME280_temperature;BME280_humidity;BME280_pressure;Samples;Min_cycle;Max_cycle;Signal;HPM_P1;HPM_P2
2022/12/01 00:00:02;;;;;;;;;;;15.80;90.30;;;;;;5058058;28;19909;-93
2022/12/01 00:02:28;;;;;;;;;;;15.80;90.40;;;;;;5058989;28;19909;-94
2022/12/01 00:04:56;;;;;;;;;;;15.80;90.40;;;;;;5059301;28;19939;-93
2022/12/01 00:07:25;;;;;;;;;;;15.80;90.40;;;;;;5059554;28;19938;-93
2022/12/01 00:12:34;;;;;;;;;;;15.70;90.40;;;;;;5075958;28;19969;-93
2022/12/01 00:15:00;;;;;;;;;;;15.70;90.50;;;;;;5059160;28;19909;-94
2022/12/01 00:17:29;;;;;;;;;;;15.70;90.50;;;;;;5060462;28;19909;-94
2022/12/01 00:19:57;;;;;;;;;;;15.70;90.50;;;;;;5060518;28;19908;-94
2022/12/01 00:22:23;;;;;;;;;;;15.70;90.60;;;;;;5060825;28;19912;-94
2022/12/01 00:24:49;;;;;;;;;;;15.70;90.60;;;;;;5060773;28;19920;-94
2022/12/01 00:27:14;;;;;;;;;;;15.60;90.90;;;;;;5060170;28;19909;-94
2022/12/01 00:29:43;;;;;;;;;;;15.60;90.60;;;;;;5060254;28;19916;-93
2022/12/01 00:32:11;;;;;;;;;;;15.60;90.60;;;;;;5058771;28;19908;-93
2022/12/01 00:34:38;;;;;;;;;;;15.60;90.70;;;;;;5058699;28;19916;-94
2022/12/01 00:37:04;;;;;;;;;;;15.60;90.70;;;;;;5060221;28;19938;-95
2022/12/01 00:39:29;;;;;;;;;;;15.60;90.70;;;;;;5060322;28;19909;-94
2022/12/01 00:41:55;;;;;;;;;;;15.50;90.70;;;;;;5058928;28;19918;-93
2022/12/01 00:44:21;;;;;;;;;;;15.50;90.70;;;;;;5060589;28;20065;-94
2022/12/01 00:46:46;;;;;;;;;;;15.60;90.80;;;;;;5060062;28;19920;-94
2022/12/01 00:49:15;;;;;;;;;;;15.50;90.70;;;;;;5059426;28;19919;-94
2022/12/01 00:51:40;;;;;;;;;;;15.50;90.70;;;;;;5059982;28;19909;-94
2022/12/01 00:54:07;;;;;;;;;;;15.50;90.70;;;;;;5060054;28;19915;-94
2022/12/01 00:56:33;;;;;;;;;;;15.50;90.70;;;;;;5059329;28;19917;-93
2022/12/01 00:58:58;;;;;;;;;;;15.40;90.70;;;;;;5059113;28;19908;-94
2022/12/01 01:01:24;;;;;;;;;;;15.50;90.80;;;;;;5059628;28;19916;-93
2022/12/01 01:03:49;;;;;;;;;;;15.40;90.80;;;;;;5059371;28;19935;-94
2022/12/01 01:06:15;;;;;;;;;;;15.40;90.80;;;;;;5059551;28;19908;-94
2022/12/01 01:08:40;;;;;;;;;;;15.40;90.90;;;;;;5059052;28;19908;-93
2022/12/01 01:11:07;;;;;;;;;;;15.40;90.90;;;;;;5057259;28;19913;-94
2022/12/01 01:13:33;;;;;;;;;;;15.40;90.90;;;;;;5057296;28;19912;-94
2022/12/01 01:16:19;;;;;;;;;;;15.40;90.90;;;;;;5057241;28;19940;-94
2022/12/01 01:18:45;;;;;;;;;;;15.40;90.90;;;;;;5087113;28;19990;-93
2022/12/01 01:21:13;;;;;;;;;;;15.30;90.90;;;;;;5061198;28;19920;-93
2022/12/01 01:23:39;;;;;;;;;;;15.30;91.20;;;;;;5060426;28;20007;-94
2022/12/01 01:26:28;;;;;;;;;;;15.30;90.90;;;;;;5061343;28;19999;-94
2022/12/01 01:28:55;;;;;;;;;;;15.30;90.90;;;;;;5089312;28;19966;-93
2022/12/01 01:31:22;;;;;;;;;;;15.30;90.90;;;;;;5060793;28;19908;-94
2022/12/01 01:33:48;;;;;;;;;;;15.30;90.90;;;;;;5061390;28;19953;-94
2022/12/01 01:36:14;;;;;;;;;;;15.30;90.90;;;;;;5061270;28;19908;-94
2022/12/01 01:38:40;;;;;;;;;;;15.30;90.90;;;;;;5060090;28;19967;-93
2022/12/01 01:41:06;;;;;;;;;;;15.30;91.00;;;;;;5059742;28;19952;-93
2022/12/01 01:43:45;;;;;;;;;;;15.20;91.00;;;;;;5059913;28;20204;-94
2022/12/01 01:46:21;;;;;;;;;;;15.20;91.00;;;;;;5060045;28;19931;-94
2022/12/01 01:48:49;;;;;;;;;;;15.20;91.00;;;;;;5063642;28;19905;-94
2022/12/01 01:51:15;;;;;;;;;;;15.20;91.00;;;;;;5064122;28;19919;-94
2022/12/01 01:53:42;;;;;;;;;;;15.20;91.00;;;;;;5064284;28;19919;-95
2022/12/01 01:56:08;;;;;;;;;;;15.20;91.00;;;;;;5063313;28;19904;-94
2022/12/01 01:58:37;;;;;;;;;;;15.20;91.00;;;;;;5062253;28;20050;-93
2022/12/01 02:01:03;;;;;;;;;;;15.10;90.90;;;;;;5063654;28;19919;-94
2022/12/01 02:03:29;;;;;;;;;;;15.10;90.90;;;;;;5061957;28;19913;-94
2022/12/01 02:05:57;;;;;;;;;;;15.10;90.90;;;;;;5063956;28;19909;-94
2022/12/01 02:08:25;;;;;;;;;;;15.10;90.90;;;;;;5063338;28;19916;-93
2022/12/01 02:11:10;;;;;;;;;;;15.10;90.90;;;;;;5096944;28;19966;-94
2022/12/01 02:13:39;;;;;;;;;;;15.10;90.90;;;;;;5093823;28;19909;-94
2022/12/01 02:16:23;;;;;;;;;;;15.10;90.90;;;;;;5061526;28;20293;-94
2022/12/01 02:19:07;;;;;;;;;;;15.10;90.90;;;;;;5088062;28;19944;-95
2022/12/01 02:21:45;;;;;;;;;;;15.10;91.00;;;;;;5093818;28;19909;-93
2022/12/01 02:24:29;;;;;;;;;;;15.10;91.00;;;;;;5060288;28;19912;-94
2022/12/01 02:27:15;;;;;;;;;;;15.00;91.00;;;;;;5092623;28;19982;-94
2022/12/01 02:30:00;;;;;;;;;;;15.00;91.00;;;;;;5059162;28;19919;-94
2022/12/01 02:32:29;;;;;;;;;;;15.00;91.00;;;;;;5059463;28;19912;-94
2022/12/01 02:34:55;;;;;;;;;;;15.00;91.00;;;;;;5059203;28;19928;-93
2022/12/01 02:37:20;;;;;;;;;;;15.00;91.30;;;;;;5060041;28;19908;-93
2022/12/01 02:39:53;;;;;;;;;;;15.00;91.00;;;;;;5060184;28;19959;-94
2022/12/01 02:45:10;;;;;;;;;;;15.00;91.00;;;;;;5078147;28;19924;-94
2022/12/01 02:47:37;;;;;;;;;;;15.00;91.00;;;;;;5060495;28;19952;-94
2022/12/01 02:50:09;;;;;;;;;;;15.00;91.00;;;;;;5060472;28;19917;-94
2022/12/01 02:52:35;;;;;;;;;;;15.00;91.00;;;;;;5061583;28;19978;-93
2022/12/01 02:55:03;;;;;;;;;;;14.90;91.00;;;;;;5061122;28;19908;-94
2022/12/01 02:57:29;;;;;;;;;;;14.90;91.00;;;;;;5061619;28;19909;-94
2022/12/01 02:59:56;;;;;;;;;;;14.90;91.00;;;;;;5061062;28;20280;-93
2022/12/01 03:02:42;;;;;;;;;;;14.90;91.00;;;;;;5062669;28;20182;-94
2022/12/01 03:05:11;;;;;;;;;;;14.90;91.00;;;;;;5061625;28;19920;-95
2022/12/01 03:08:00;;;;;;;;;;;14.90;91.00;;;;;;5060905;28;20057;-94
2022/12/01 03:10:42;;;;;;;;;;;14.90;91.00;;;;;;5060476;28;19920;-94
2022/12/01 03:13:16;;;;;;;;;;;14.90;91.00;;;;;;5058976;28;19912;-94
2022/12/01 03:15:52;;;;;;;;;;;14.90;91.10;;;;;;5059131;28;19916;-94
2022/12/01 03:18:38;;;;;;;;;;;14.80;91.00;;;;;;5060124;28;19909;-94
2022/12/01 03:21:07;;;;;;;;;;;14.80;91.00;;;;;;5094426;28;19923;-94
2022/12/01 03:23:37;;;;;;;;;;;14.80;91.00;;;;;;5061126;28;19974;-94
2022/12/01 03:26:05;;;;;;;;;;;14.80;91.00;;;;;;5060343;28;20277;-94
2022/12/01 03:28:34;;;;;;;;;;;14.80;91.00;;;;;;5060164;28;20304;-94
2022/12/01 03:31:02;;;;;;;;;;;14.80;91.00;;;;;;5060488;28;19989;-94
2022/12/01 03:33:31;;;;;;;;;;;14.80;91.00;;;;;;5061438;28;19912;-94
2022/12/01 03:36:00;;;;;;;;;;;14.80;91.00;;;;;;5061053;28;19913;-94
2022/12/01 03:38:26;;;;;;;;;;;14.80;91.00;;;;;;5061536;28;20274;-94
2022/12/01 03:41:00;;;;;;;;;;;14.80;91.10;;;;;;5059691;28;19975;-93
2022/12/01 03:43:34;;;;;;;;;;;14.80;91.10;;;;;;5060182;28;19916;-94
2022/12/01 03:46:02;;;;;;;;;;;14.80;91.10;;;;;;5059665;28;19909;-94
2022/12/01 03:48:29;;;;;;;;;;;14.80;91.10;;;;;;5059554;28;20122;-94
2022/12/01 03:51:07;;;;;;;;;;;14.80;91.10;;;;;;5060408;28;19908;-94
2022/12/01 03:53:37;;;;;;;;;;;14.70;91.10;;;;;;5060817;28;19935;-94
2022/12/01 03:56:04;;;;;;;;;;;14.70;91.20;;;;;;5060242;28;20318;-94
2022/12/01 03:58:33;;;;;;;;;;;14.70;91.20;;;;;;5060537;28;19909;-94
2022/12/01 04:01:03;;;;;;;;;;;14.70;91.30;;;;;;5061490;28;19908;-94
2022/12/01 04:03:33;;;;;;;;;;;14.70;91.30;;;;;;5062001;28;19912;-94
2022/12/01 04:05:59;;;;;;;;;;;14.60;91.30;;;;;;5061872;28;20193;-94
2022/12/01 04:08:24;;;;;;;;;;;14.60;91.40;;;;;;5058862;28;19908;-94
2022/12/01 04:10:50;;;;;;;;;;;14.60;91.40;;;;;;5059363;28;19981;-94
2022/12/01 04:13:21;;;;;;;;;;;14.60;91.50;;;;;;5060089;28;20356;-94
2022/12/01 04:15:51;;;;;;;;;;;14.60;91.50;;;;;;5059705;28;19919;-94
2022/12/01 04:18:19;;;;;;;;;;;15.00;91.00;;;;;;5061575;28;19909;-92
2022/12/01 04:20:45;;;;;;;;;;;16.10;85.50;;;;;;5061792;28;19908;-93
2022/12/01 04:23:58;;;;;;;;;;;16.70;80.70;;;;;;5060489;28;20117;-94
2022/12/01 04:26:01;;;;;;;;;;;17.10;77.70;;;;;;5078694;28;19936;-94
2022/12/01 04:28:27;;;;;;;;;;;17.40;75.00;;;;;;5062860;28;19951;-94
2022/12/01 04:30:53;;;;;;;;;;;17.60;73.40;;;;;;5064086;28;19912;-94
2022/12/01 04:33:21;;;;;;;;;;;17.70;72.10;;;;;;5065818;28;19931;-94
2022/12/01 04:35:59;;;;;;;;;;;17.90;71.40;;;;;;5065786;28;20004;-93
2022/12/01 04:38:25;;;;;;;;;;;17.90;70.70;;;;;;5061541;28;19920;-93
2022/12/01 04:40:50;;;;;;;;;;;18.00;70.00;;;;;;5061591;28;19908;-93
2022/12/01 04:43:16;;;;;;;;;;;18.10;69.60;;;;;;5062153;28;19920;-93
2022/12/01 04:45:41;;;;;;;;;;;18.10;70.00;;;;;;5062187;28;19909;-93
2022/12/01 04:48:10;;;;;;;;;;;18.20;69.00;;;;;;5062913;28;19934;-94
2022/12/01 04:50:35;;;;;;;;;;;18.30;68.50;;;;;;5062545;28;19999;-94
2022/12/01 04:53:01;;;;;;;;;;;18.40;67.80;;;;;;5065031;28;20243;-94
2022/12/01 04:55:28;;;;;;;;;;;18.60;67.20;;;;;;5064726;28;19920;-94
2022/12/01 04:57:53;;;;;;;;;;;18.60;66.60;;;;;;5066283;28;19908;-93
2022/12/01 05:00:19;;;;;;;;;;;18.60;66.30;;;;;;5066880;28;19939;-94
2022/12/01 05:02:45;;;;;;;;;;;18.60;66.30;;;;;;5067057;28;20265;-93
2022/12/01 05:05:13;;;;;;;;;;;18.50;66.40;;;;;;5065319;28;19977;-94
2022/12/01 05:07:39;;;;;;;;;;;18.50;66.80;;;;;;5068923;28;19917;-93
2022/12/01 05:10:07;;;;;;;;;;;18.40;67.20;;;;;;5067615;28;20192;-94
2022/12/01 05:12:33;;;;;;;;;;;18.30;67.70;;;;;;5065253;28;20236;-94
2022/12/01 05:14:58;;;;;;;;;;;18.10;68.20;;;;;;5068522;28;19909;-92
2022/12/01 05:17:29;;;;;;;;;;;18.00;68.80;;;;;;5066382;28;19908;-94
2022/12/01 05:22:42;;;;;;;;;;;17.80;70.10;;;;;;5082364;28;19974;-93
2022/12/01 05:25:11;;;;;;;;;;;17.60;70.80;;;;;;5062648;28;20071;-93
2022/12/01 05:27:37;;;;;;;;;;;17.50;71.50;;;;;;5061542;28;20136;-92
2022/12/01 05:30:06;;;;;;;;;;;17.40;72.20;;;;;;5061216;28;19955;-93
2022/12/01 05:32:31;;;;;;;;;;;17.20;72.80;;;;;;5059493;28;19940;-93
2022/12/01 05:34:57;;;;;;;;;;;17.10;73.50;;;;;;5060273;28;19960;-93
2022/12/01 05:37:31;;;;;;;;;;;17.00;74.20;;;;;;5059666;28;20063;-93
2022/12/01 05:39:56;;;;;;;;;;;16.90;74.90;;;;;;5058109;28;20277;-93
2022/12/01 05:42:22;;;;;;;;;;;16.80;75.60;;;;;;5059661;28;20007;-93
2022/12/01 05:44:47;;;;;;;;;;;16.70;76.30;;;;;;5059932;28;20014;-93
2022/12/01 05:47:13;;;;;;;;;;;16.70;76.90;;;;;;5062853;28;19916;-93
2022/12/01 05:49:41;;;;;;;;;;;16.60;77.50;;;;;;5062276;28;19908;-93
2022/12/01 05:52:07;;;;;;;;;;;16.50;78.80;;;;;;5062899;28;20201;-93
2022/12/01 05:54:32;;;;;;;;;;;16.40;78.70;;;;;;5062651;28;19912;-92
2022/12/01 05:56:58;;;;;;;;;;;16.40;79.30;;;;;;5062562;28;19908;-93
2022/12/01 05:59:24;;;;;;;;;;;16.30;79.60;;;;;;5061208;28;19908;-93
2022/12/01 06:01:49;;;;;;;;;;;16.30;79.80;;;;;;5060541;28;20421;-93
2022/12/01 06:04:15;;;;;;;;;;;16.30;80.20;;;;;;5059936;28;19924;-93
2022/12/01 06:06:40;;;;;;;;;;;16.20;80.30;;;;;;5061218;28;19908;-93
2022/12/01 06:09:07;;;;;;;;;;;16.20;80.40;;;;;;5059182;28;19920;-94
2022/12/01 06:11:32;;;;;;;;;;;16.30;80.30;;;;;;5058994;28;20079;-93
2022/12/01 06:13:58;;;;;;;;;;;16.30;80.00;;;;;;5058554;28;19908;-93
2022/12/01 06:16:24;;;;;;;;;;;16.50;78.90;;;;;;5072859;28;19912;-93
2022/12/01 06:19:00;;;;;;;;;;;16.70;77.20;;;;;;5058839;28;20281;-93
2022/12/01 06:21:26;;;;;;;;;;;17.00;75.40;;;;;;5058759;28;19916;-93
2022/12/01 06:23:51;;;;;;;;;;;17.20;73.50;;;;;;5057977;28;19916;-94
2022/12/01 06:26:17;;;;;;;;;;;17.50;72.30;;;;;;5057379;28;19966;-94
2022/12/01 06:28:47;;;;;;;;;;;17.60;71.30;;;;;;5059929;28;20007;-94
2022/12/01 06:31:12;;;;;;;;;;;17.60;70.70;;;;;;5057638;28;20007;-93
2022/12/01 06:33:38;;;;;;;;;;;17.70;70.30;;;;;;5055917;28;20147;-92
2022/12/01 06:36:05;;;;;;;;;;;17.70;69.90;;;;;;5055736;28;19908;-93
2022/12/01 06:38:32;;;;;;;;;;;17.70;69.60;;;;;;5054408;28;19977;-93
2022/12/01 06:40:58;;;;;;;;;;;17.80;69.40;;;;;;5053487;28;19927;-93
2022/12/01 06:43:24;;;;;;;;;;;17.80;69.10;;;;;;5054405;28;19924;-93
2022/12/01 06:45:49;;;;;;;;;;;17.80;68.90;;;;;;5053210;28;19950;-93
2022/12/01 06:48:18;;;;;;;;;;;17.80;69.00;;;;;;5053410;28;19915;-93
2022/12/01 06:50:46;;;;;;;;;;;17.80;68.80;;;;;;5054075;28;20363;-93
2022/12/01 06:53:12;;;;;;;;;;;17.80;68.60;;;;;;5055911;28;19916;-93
2022/12/01 06:55:37;;;;;;;;;;;17.80;69.20;;;;;;5054665;28;19908;-93
2022/12/01 06:58:04;;;;;;;;;;;17.70;68.80;;;;;;5050956;28;19908;-92
2022/12/01 07:00:32;;;;;;;;;;;17.70;69.00;;;;;;5055331;28;19908;-93
2022/12/01 07:03:01;;;;;;;;;;;17.60;69.50;;;;;;5054187;28;20045;-93
2022/12/01 07:05:26;;;;;;;;;;;17.50;69.90;;;;;;5051746;28;20172;-93
2022/12/01 07:07:52;;;;;;;;;;;17.40;70.30;;;;;;5051989;28;19908;-93
2022/12/01 07:10:18;;;;;;;;;;;17.40;70.70;;;;;;5051259;28;19930;-93
2022/12/01 07:12:44;;;;;;;;;;;17.30;71.00;;;;;;5052228;28;19970;-93
2022/12/01 07:15:09;;;;;;;;;;;17.20;71.30;;;;;;5052543;28;19947;-93
2022/12/01 07:17:35;;;;;;;;;;;17.10;71.50;;;;;;5055178;28;19912;-93
2022/12/01 07:20:01;;;;;;;;;;;17.10;71.90;;;;;;5055503;28;20098;-93
2022/12/01 07:22:27;;;;;;;;;;;17.00;72.40;;;;;;5052741;28;19935;-92
2022/12/01 07:24:52;;;;;;;;;;;16.90;72.70;;;;;;5051988;28;19913;-93
2022/12/01 07:27:18;;;;;;;;;;;16.90;73.00;;;;;;5052449;28;19952;-93
2022/12/01 07:29:44;;;;;;;;;;;16.80;73.20;;;;;;5052166;28;19959;-93
2022/12/01 07:32:10;;;;;;;;;;;16.70;73.50;;;;;;5052073;28;20391;-92
2022/12/01 07:34:35;;;;;;;;;;;16.70;73.90;;;;;;5050855;28;20007;-93
2022/12/01 07:37:01;;;;;;;;;;;16.60;74.20;;;;;;5050577;28;20428;-93
2022/12/01 07:39:29;;;;;;;;;;;16.60;74.50;;;;;;5053636;28;20338;-92
2022/12/01 07:41:58;;;;;;;;;;;16.50;74.90;;;;;;5054118;28;19912;-93
2022/12/01 07:44:26;;;;;;;;;;;16.50;75.20;;;;;;5053221;28;19912;-93
2022/12/01 07:46:52;;;;;;;;;;;16.50;75.20;;;;;;5051684;28;20065;-92
2022/12/01 07:49:18;;;;;;;;;;;16.50;75.30;;;;;;5052527;28;20214;-93
2022/12/01 07:51:44;;;;;;;;;;;16.50;75.00;;;;;;5054068;28;20374;-92
2022/12/01 07:54:10;;;;;;;;;;;16.60;74.50;;;;;;5053176;28;19909;-93
2022/12/01 07:56:36;;;;;;;;;;;16.80;73.60;;;;;;5053719;28;19912;-94
2022/12/01 07:59:02;;;;;;;;;;;17.00;72.30;;;;;;5050655;28;19909;-93
2022/12/01 08:01:28;;;;;;;;;;;17.10;71.10;;;;;;5051970;28;19916;-93
2022/12/01 08:04:00;;;;;;;;;;;17.30;70.30;;;;;;5052087;28;20159;-93
2022/12/01 08:06:25;;;;;;;;;;;17.50;69.60;;;;;;5052839;28;19995;-93
2022/12/01 08:08:51;;;;;;;;;;;17.60;69.20;;;;;;5052051;28;20015;-93
2022/12/01 08:11:19;;;;;;;;;;;17.60;68.60;;;;;;5053093;28;20217;-93
2022/12/01 08:13:44;;;;;;;;;;;17.60;68.50;;;;;;5052001;28;19917;-94
2022/12/01 08:16:11;;;;;;;;;;;17.70;68.50;;;;;;5050816;28;20262;-93
2022/12/01 08:18:37;;;;;;;;;;;17.70;68.20;;;;;;5053116;28;20281;-93
2022/12/01 08:21:04;;;;;;;;;;;17.70;68.10;;;;;;5052036;28;20057;-93
2022/12/01 08:23:30;;;;;;;;;;;17.80;67.90;;;;;;5052885;28;19924;-93
2022/12/01 08:25:59;;;;;;;;;;;17.80;67.70;;;;;;5054398;28;19912;-92
2022/12/01 08:28:24;;;;;;;;;;;17.70;67.60;;;;;;5059402;28;20375;-93
2022/12/01 08:30:50;;;;;;;;;;;17.80;67.40;;;;;;5054799;28;19969;-93
2022/12/01 08:33:15;;;;;;;;;;;17.70;67.40;;;;;;5055837;28;19969;-93
2022/12/01 08:35:44;;;;;;;;;;;17.70;67.60;;;;;;5056139;28;19917;-93
2022/12/01 08:38:10;;;;;;;;;;;17.60;67.80;;;;;;5057903;28;19908;-93
2022/12/01 08:40:37;;;;;;;;;;;17.60;68.00;;;;;;5056988;28;19912;-93
2022/12/01 08:43:04;;;;;;;;;;;17.50;68.30;;;;;;5054773;28;19936;-93
2022/12/01 08:45:32;;;;;;;;;;;17.50;68.80;;;;;;5051379;28;19913;-93
2022/12/01 08:47:58;;;;;;;;;;;17.40;69.20;;;;;;5053662;28;20174;-93
2022/12/01 08:50:25;;;;;;;;;;;17.30;69.60;;;;;;5055588;28;19908;-93
2022/12/01 08:52:55;;;;;;;;;;;17.20;70.00;;;;;;5056240;28;20287;-93
2022/12/01 08:55:23;;;;;;;;;;;17.10;70.40;;;;;;5057308;28;19908;-93
2022/12/01 08:57:49;;;;;;;;;;;17.10;70.60;;;;;;5056173;28;20034;-93
2022/12/01 09:00:15;;;;;;;;;;;17.00;70.90;;;;;;5055831;28;20128;-94
2022/12/01 09:02:42;;;;;;;;;;;16.90;71.40;;;;;;5054436;28;20304;-93
2022/12/01 09:05:09;;;;;;;;;;;16.80;71.90;;;;;;5057116;28;19939;-93
2022/12/01 09:07:35;;;;;;;;;;;16.70;72.70;;;;;;5057094;28;19913;-94
2022/12/01 09:10:01;;;;;;;;;;;16.70;73.50;;;;;;5055619;28;20183;-93
2022/12/01 09:12:27;;;;;;;;;;;16.50;74.20;;;;;;5054706;28;19909;-93
2022/12/01 09:14:53;;;;;;;;;;;16.50;74.90;;;;;;5056552;28;19967;-93
2022/12/01 09:17:18;;;;;;;;;;;16.40;75.50;;;;;;5055561;28;19947;-93
2022/12/01 09:19:44;;;;;;;;;;;16.30;76.00;;;;;;5055880;28;19962;-94
2022/12/01 09:22:11;;;;;;;;;;;16.20;76.40;;;;;;5052654;28;19916;-93
2022/12/01 09:24:37;;;;;;;;;;;16.20;76.80;;;;;;5089282;28;20052;-94
2022/12/01 09:27:05;;;;;;;;;;;16.20;77.00;;;;;;5058199;28;20036;-93
2022/12/01 09:29:31;;;;;;;;;;;16.30;76.70;;;;;;5056173;28;19908;-94
2022/12/01 09:31:58;;;;;;;;;;;16.60;75.30;;;;;;5055326;28;19909;-94
2022/12/01 09:34:27;;;;;;;;;;;17.00;72.70;;;;;;5054320;28;19924;-93
2022/12/01 09:36:54;;;;;;;;;;;17.40;69.90;;;;;;5056272;28;19909;-93
2022/12/01 09:39:19;;;;;;;;;;;17.80;67.70;;;;;;5055137;28;19996;-93
2022/12/01 09:41:46;;;;;;;;;;;18.10;66.20;;;;;;5055083;28;20015;-93
2022/12/01 09:44:41;;;;;;;;;;;18.20;65.30;;;;;;5055955;28;20377;-93
2022/12/01 09:47:11;;;;;;;;;;;18.30;64.80;;;;;;5079040;28;19920;-93
2022/12/01 09:49:36;;;;;;;;;;;18.30;64.50;;;;;;5054671;28;19908;-93
2022/12/01 09:52:03;;;;;;;;;;;18.30;64.20;;;;;;5054173;28;20300;-94
2022/12/01 09:54:32;;;;;;;;;;;18.40;64.10;;;;;;5053712;28;20076;-93
2022/12/01 09:56:59;;;;;;;;;;;18.40;63.90;;;;;;5053655;28;19915;-93
2022/12/01 09:59:25;;;;;;;;;;;18.40;63.80;;;;;;5053371;28;19909;-94
2022/12/01 10:01:59;;;;;;;;;;;18.30;63.80;;;;;;5054995;28;20071;-93
2022/12/01 10:04:28;;;;;;;;;;;18.30;63.80;;;;;;5053559;28;20081;-93
2022/12/01 10:07:02;;;;;;;;;;;18.20;63.90;;;;;;5052685;28;19917;-93
2022/12/01 10:09:34;;;;;;;;;;;18.10;64.00;;;;;;5053440;28;19908;-93
2022/12/01 10:12:13;;;;;;;;;;;18.10;64.60;;;;;;5053820;28;19990;-93
2022/12/01 10:14:39;;;;;;;;;;;17.90;65.50;;;;;;5052874;28;19915;-93
2022/12/01 10:17:04;;;;;;;;;;;17.80;66.40;;;;;;5051400;28;20257;-93
2022/12/01 10:19:34;;;;;;;;;;;17.70;67.20;;;;;;5053210;28;20008;-93
2022/12/01 10:22:24;;;;;;;;;;;17.60;67.70;;;;;;5053411;28;20246;-93
2022/12/01 10:24:49;;;;;;;;;;;17.50;68.30;;;;;;5081513;28;19920;-93
2022/12/01 10:27:37;;;;;;;;;;;17.40;68.80;;;;;;5052302;28;20114;-93
2022/12/01 10:30:14;;;;;;;;;;;17.30;70.00;;;;;;5053221;28;19908;-93
2022/12/01 10:32:51;;;;;;;;;;;17.20;70.00;;;;;;5053086;28;19951;-93
2022/12/01 10:35:18;;;;;;;;;;;17.10;70.60;;;;;;5053119;28;19917;-93
2022/12/01 10:37:47;;;;;;;;;;;17.10;71.20;;;;;;5068594;28;20023;-93
2022/12/01 10:40:14;;;;;;;;;;;17.00;71.60;;;;;;5053080;28;20202;-93
2022/12/01 10:42:45;;;;;;;;;;;16.90;72.10;;;;;;5052033;28;19920;-92
2022/12/01 10:45:15;;;;;;;;;;;16.80;72.60;;;;;;5053687;28;20381;-93
2022/12/01 10:48:00;;;;;;;;;;;16.80;73.10;;;;;;5051869;28;19908;-94
2022/12/01 10:50:26;;;;;;;;;;;16.70;73.40;;;;;;5085902;28;19912;-93
2022/12/01 10:52:52;;;;;;;;;;;16.70;73.70;;;;;;5053758;28;19908;-92
2022/12/01 10:55:21;;;;;;;;;;;16.70;73.90;;;;;;5052580;28;19919;-93
2022/12/01 10:57:47;;;;;;;;;;;16.70;73.90;;;;;;5051557;28;19993;-93
2022/12/01 11:00:23;;;;;;;;;;;16.60;74.30;;;;;;5051800;28;19948;-93
2022/12/01 11:05:54;;;;;;;;;;;16.70;74.20;;;;;;5054740;28;19977;-93
2022/12/01 11:08:23;;;;;;;;;;;16.80;73.90;;;;;;5051123;28;19919;-92
2022/12/01 11:10:49;;;;;;;;;;;17.00;73.30;;;;;;5049824;28;19916;-93
2022/12/01 11:13:19;;;;;;;;;;;17.10;72.50;;;;;;5050346;28;19935;-93
2022/12/01 11:16:05;;;;;;;;;;;17.30;71.60;;;;;;5050390;28;19908;-92
2022/12/01 11:18:35;;;;;;;;;;;17.50;70.70;;;;;;5048644;28;20094;-93
2022/12/01 11:21:05;;;;;;;;;;;17.60;69.50;;;;;;5048028;28;20144;-93
2022/12/01 11:23:43;;;;;;;;;;;17.80;68.60;;;;;;5048657;28;19912;-93
2022/12/01 11:26:14;;;;;;;;;;;17.90;67.90;;;;;;5050300;28;20115;-93
2022/12/01 11:28:42;;;;;;;;;;;18.00;67.00;;;;;;5049389;28;19912;-93
2022/12/01 11:31:09;;;;;;;;;;;18.10;66.30;;;;;;5048501;28;20244;-93
2022/12/01 11:33:46;;;;;;;;;;;18.20;65.80;;;;;;5051194;28;20041;-93
2022/12/01 11:36:18;;;;;;;;;;;18.20;65.40;;;;;;5048654;28;19917;-93
2022/12/01 11:38:44;;;;;;;;;;;18.20;65.10;;;;;;5048958;28;19916;-93
2022/12/01 11:41:21;;;;;;;;;;;18.20;65.10;;;;;;5048368;28;19912;-93
2022/12/01 11:43:47;;;;;;;;;;;18.20;65.10;;;;;;5050428;28;19920;-93
2022/12/01 11:46:13;;;;;;;;;;;18.10;65.10;;;;;;5050959;28;19931;-93
2022/12/01 11:48:38;;;;;;;;;;;18.10;65.40;;;;;;5049891;28;19909;-93
2022/12/01 11:51:09;;;;;;;;;;;18.00;66.30;;;;;;5049722;28;19920;-93
2022/12/01 11:53:40;;;;;;;;;;;17.90;66.00;;;;;;5048372;28;20065;-93
2022/12/01 11:56:22;;;;;;;;;;;17.80;66.40;;;;;;5049453;28;19908;-93
2022/12/01 11:58:49;;;;;;;;;;;17.70;66.80;;;;;;5049663;28;20245;-93
2022/12/01 12:01:15;;;;;;;;;;;17.60;67.40;;;;;;5048449;28;19905;-92
2022/12/01 12:04:03;;;;;;;;;;;17.50;67.80;;;;;;5068112;28;19920;-93
2022/12/01 12:07:05;;;;;;;;;;;17.50;68.20;;;;;;5081696;28;20020;-93
2022/12/01 12:09:43;;;;;;;;;;;17.40;68.70;;;;;;5042258;28;20395;-93
2022/12/01 12:12:18;;;;;;;;;;;17.30;69.20;;;;;;5045033;28;20393;-93
2022/12/01 12:14:46;;;;;;;;;;;17.20;69.70;;;;;;5048627;28;19908;-93
2022/12/01 12:17:17;;;;;;;;;;;17.10;70.10;;;;;;5049282;28;19908;-92
2022/12/01 12:19:50;;;;;;;;;;;17.00;70.60;;;;;;5048783;28;20071;-93
2022/12/01 12:22:18;;;;;;;;;;;17.00;71.00;;;;;;5049119;28;19931;-93
2022/12/01 12:24:52;;;;;;;;;;;16.90;71.40;;;;;;5050592;28;19912;-92
2022/12/01 12:27:36;;;;;;;;;;;16.80;71.70;;;;;;5048496;28;19916;-93
2022/12/01 12:30:07;;;;;;;;;;;16.80;72.10;;;;;;5046653;28;20248;-93
2022/12/01 12:32:52;;;;;;;;;;;16.70;72.50;;;;;;5046893;28;19923;-92
2022/12/01 12:35:26;;;;;;;;;;;16.70;72.80;;;;;;5079422;28;19924;-92
2022/12/01 12:37:57;;;;;;;;;;;16.70;73.10;;;;;;5081911;28;20014;-93
2022/12/01 12:40:34;;;;;;;;;;;16.60;73.20;;;;;;5048628;28;19939;-92
2022/12/01 12:43:19;;;;;;;;;;;16.70;73.10;;;;;;5050493;28;19999;-93
2022/12/01 12:45:44;;;;;;;;;;;16.80;72.70;;;;;;5083203;28;20015;-93
2022/12/01 12:48:25;;;;;;;;;;;16.90;71.90;;;;;;5068280;28;20019;-93
2022/12/01 12:51:03;;;;;;;;;;;17.10;71.10;;;;;;5048627;28;19908;-93
2022/12/01 12:53:32;;;;;;;;;;;17.30;69.70;;;;;;5049651;28;19909;-92
2022/12/01 12:55:59;;;;;;;;;;;17.50;68.80;;;;;;5047105;28;19908;-93
2022/12/01 12:58:27;;;;;;;;;;;17.60;68.00;;;;;;5050312;28;20190;-93
2022/12/01 13:00:56;;;;;;;;;;;17.70;67.40;;;;;;5050084;28;20007;-92
2022/12/01 13:03:27;;;;;;;;;;;17.80;66.90;;;;;;5050253;28;19959;-92
2022/12/01 13:05:52;;;;;;;;;;;17.80;66.60;;;;;;5048867;28;19908;-92
2022/12/01 13:08:18;;;;;;;;;;;17.80;66.40;;;;;;5047433;28;19908;-93
2022/12/01 13:10:56;;;;;;;;;;;17.90;66.10;;;;;;5046077;28;20032;-93
2022/12/01 13:13:41;;;;;;;;;;;17.90;65.80;;;;;;5049091;28;19908;-93
2022/12/01 13:16:12;;;;;;;;;;;18.00;65.70;;;;;;5085021;28;19908;-93
2022/12/01 13:18:41;;;;;;;;;;;18.00;65.30;;;;;;5050805;28;19908;-92
2022/12/01 13:21:12;;;;;;;;;;;18.00;65.20;;;;;;5049249;28;20020;-93
2022/12/01 13:23:37;;;;;;;;;;;18.00;65.20;;;;;;5070236;28;19912;-93
2022/12/01 13:26:04;;;;;;;;;;;17.90;65.30;;;;;;5052112;28;19920;-93
2022/12/01 13:28:59;;;;;;;;;;;17.90;65.30;;;;;;5054760;28;20044;-93
2022/12/01 13:31:24;;;;;;;;;;;17.80;65.50;;;;;;5078984;28;19969;-93
2022/12/01 13:33:58;;;;;;;;;;;17.70;65.80;;;;;;5053444;28;19920;-93
2022/12/01 13:36:27;;;;;;;;;;;17.70;66.10;;;;;;5051884;28;19916;-92
2022/12/01 13:39:22;;;;;;;;;;;17.60;66.50;;;;;;5052204;28;19928;-93
2022/12/01 13:42:06;;;;;;;;;;;17.50;66.80;;;;;;5077167;28;19944;-92
2022/12/01 13:44:32;;;;;;;;;;;17.40;67.30;;;;;;5083496;28;19916;-92
2022/12/01 13:47:01;;;;;;;;;;;17.30;67.70;;;;;;5052425;28;20215;-92
2022/12/01 13:49:38;;;;;;;;;;;17.30;68.00;;;;;;5053266;28;20005;-92
2022/12/01 13:52:34;;;;;;;;;;;17.20;68.50;;;;;;5051267;28;19912;-93
2022/12/01 13:55:09;;;;;;;;;;;17.10;69.20;;;;;;5048338;28;19982;-92
2022/12/01 13:57:47;;;;;;;;;;;17.00;69.90;;;;;;5052153;28;19916;-92
2022/12/01 14:00:18;;;;;;;;;;;16.90;70.50;;;;;;5085010;28;19977;-93
2022/12/01 14:02:44;;;;;;;;;;;16.80;71.00;;;;;;5047854;28;19931;-93
2022/12/01 14:05:28;;;;;;;;;;;16.70;71.40;;;;;;5049539;28;19912;-92
2022/12/01 14:07:54;;;;;;;;;;;16.70;71.90;;;;;;5083999;28;19920;-92
2022/12/01 14:10:23;;;;;;;;;;;16.50;72.30;;;;;;5051225;28;19908;-92
2022/12/01 14:12:50;;;;;;;;;;;16.50;73.00;;;;;;5049973;28;20189;-93
2022/12/01 14:15:34;;;;;;;;;;;16.40;73.60;;;;;;5047653;28;20171;-92
2022/12/01 14:18:04;;;;;;;;;;;16.40;74.20;;;;;;5081419;28;19908;-92
2022/12/01 14:20:32;;;;;;;;;;;16.30;74.60;;;;;;5047364;28;19966;-93
2022/12/01 14:23:17;;;;;;;;;;;16.30;74.90;;;;;;5049234;28;19988;-93
2022/12/01 14:25:55;;;;;;;;;;;16.40;74.60;;;;;;5083684;28;19921;-93
2022/12/01 14:28:40;;;;;;;;;;;16.60;73.40;;;;;;5065384;28;19908;-92
2022/12/01 14:31:06;;;;;;;;;;;17.10;71.00;;;;;;5047742;28;19909;-92
2022/12/01 14:33:38;;;;;;;;;;;17.60;68.30;;;;;;5048176;28;19981;-93
2022/12/01 14:36:21;;;;;;;;;;;18.00;65.70;;;;;;5050988;28;19923;-93
2022/12/01 14:38:56;;;;;;;;;;;18.30;63.90;;;;;;5050356;28;19980;-92
2022/12/01 14:41:26;;;;;;;;;;;18.50;62.90;;;;;;5051521;28;20213;-92